sensor_id;sensor_type;location;lat;lon;timestamp;P1;durP1;ratioP1;P2;durP2;ratioP2
12059;SDS011;6091;51.432;6.880;2022-12-18T00:01:24;4.03;;;3.72;;
12059;SDS011;6091;51.432;6.880;2022-12-18T00:03:54;4.70;;;4.30;;
12059;SDS011;6091;51.432;6.880;2022-12-18T00:06:22;4.70;;;4.30;;
12059;SDS011;6091;51.432;6.880;2022-12-18T00:08:52;4.53;;;4.13;;
12059;SDS011;6091;51.432;6.880;2022-12-18T00:11:22;4.70;;;4.30;;
12059;SDS011;6091;51.432;6.880;2022-12-18T00:13:54;4.07;;;3.78;;
12059;SDS011;6091;51.432;6.880;2022-12-18T00:16:24;4.75;;;4.38;;
12059;SDS011;6091;51.432;6.880;2022-12-18T00:18:54;6.78;;;4.63;;
12059;SDS011;6091;51.432;6.880;2022-12-18T00:21:23;4.43;;;4.10;;
12059;SDS011;6091;51.432;6.880;2022-12-18T00:23:50;4.20;;;3.80;;
12059;SDS011;6091;51.432;6.880;2022-12-18T00:26:25;4.55;;;4.15;;
12059;SDS011;6091;51.432;6.880;2022-12-18T00:28:58;4.10;;;3.80;;
12059;SDS011;6091;51.432;6.880;2022-12-18T00:31:28;4.00;;;3.70;;
12059;SDS011;6091;51.432;6.880;2022-12-18T00:33:55;3.85;;;3.53;;
12059;SDS011;6091;51.432;6.880;2022-12-18T00:36:27;3.95;;;3.65;;
12059;SDS011;6091;51.432;6.880;2022-12-18T00:38:57;4.07;;;3.72;;
12059;SDS011;6091;51.432;6.880;2022-12-18T00:41:27;4.07;;;3.78;;
12059;SDS011;6091;51.432;6.880;2022-12-18T00:44:14;4.15;;;3.78;;
12059;SDS011;6091;51.432;6.880;2022-12-18T00:46:43;4.15;;;3.83;;
12059;SDS011;6091;51.432;6.880;2022-12-18T00:49:11;3.88;;;3.58;;
12059;SDS011;6091;51.432;6.880;2022-12-18T00:51:38;3.67;;;3.38;;
12059;SDS011;6091;51.432;6.880;2022-12-18T00:54:06;3.80;;;3.50;;
12059;SDS011;6091;51.432;6.880;2022-12-18T00:56:34;8.00;;;3.78;;
12059;SDS011;6091;51.432;6.880;2022-12-18T00:59:13;3.78;;;3.47;;
12059;SDS011;6091;51.432;6.880;2022-12-18T01:01:41;3.90;;;3.60;;
12059;SDS011;6091;51.432;6.880;2022-12-18T01:04:09;3.47;;;3.22;;
12059;SDS011;6091;51.432;6.880;2022-12-18T01:06:35;3.72;;;3.42;;
12059;SDS011;6091;51.432;6.880;2022-12-18T01:09:03;3.60;;;3.30;;
12059;SDS011;6091;51.432;6.880;2022-12-18T01:11:30;3.17;;;2.97;;
12059;SDS011;6091;51.432;6.880;2022-12-18T01:13:57;3.70;;;3.40;;
12059;SDS011;6091;51.432;6.880;2022-12-18T01:16:24;4.10;;;3.80;;
12059;SDS011;6091;51.432;6.880;2022-12-18T01:18:52;3.97;;;3.63;;
12059;SDS011;6091;51.432;6.880;2022-12-18T01:21:20;3.55;;;3.25;;
12059;SDS011;6091;51.432;6.880;2022-12-18T01:23:55;3.70;;;3.33;;
12059;SDS011;6091;51.432;6.880;2022-12-18T01:26:24;3.65;;;3.35;;
12059;SDS011;6091;51.432;6.880;2022-12-18T01:28:53;3.35;;;3.05;;
12059;SDS011;6091;51.432;6.880;2022-12-18T01:31:23;3.22;;;3.03;;
12059;SDS011;6091;51.432;6.880;2022-12-18T01:33:54;3.20;;;3.00;;
12059;SDS011;6091;51.432;6.880;2022-12-18T01:36:29;3.60;;;3.30;;
12059;SDS011;6091;51.432;6.880;2022-12-18T01:38:59;3.28;;;3.03;;
12059;SDS011;6091;51.432;6.880;2022-12-18T01:41:29;3.47;;;3.17;;
12059;SDS011;6091;51.432;6.880;2022-12-18T01:47:35;3.20;;;2.90;;
12059;SDS011;6091;51.432;6.880;2022-12-18T01:50:19;2.97;;;2.78;;
12059;SDS011;6091;51.432;6.880;2022-12-18T01:53:02;3.53;;;3.22;;
12059;SDS011;6091;51.432;6.880;2022-12-18T01:55:43;3.03;;;2.83;;
12059;SDS011;6091;51.432;6.880;2022-12-18T01:58:19;3.50;;;3.20;;
12059;SDS011;6091;51.432;6.880;2022-12-18T02:01:09;3.42;;;3.08;;
12059;SDS011;6091;51.432;6.880;2022-12-18T02:03:37;3.22;;;3.00;;
12059;SDS011;6091;51.432;6.880;2022-12-18T02:14:28;3.40;;;3.10;;
12059;SDS011;6091;51.432;6.880;2022-12-18T02:17:06;3.50;;;3.20;;
12059;SDS011;6091;51.432;6.880;2022-12-18T02:20:12;3.30;;;3.00;;
12059;SDS011;6091;51.432;6.880;2022-12-18T02:25:59;2.83;;;2.63;;
12059;SDS011;6091;51.432;6.880;2022-12-18T02:28:45;2.80;;;2.50;;
12059;SDS011;6091;51.432;6.880;2022-12-18T02:31:33;2.78;;;2.58;;
12059;SDS011;6091;51.432;6.880;2022-12-18T02:34:08;2.83;;;2.63;;
12059;SDS011;6091;51.432;6.880;2022-12-18T02:36:39;2.70;;;2.50;;
12059;SDS011;6091;51.432;6.880;2022-12-18T02:39:10;3.33;;;3.03;;
12059;SDS011;6091;51.432;6.880;2022-12-18T02:41:39;3.47;;;3.17;;
12059;SDS011;6091;51.432;6.880;2022-12-18T02:44:08;2.70;;;2.50;;
12059;SDS011;6091;51.432;6.880;2022-12-18T02:46:42;2.83;;;2.63;;
12059;SDS011;6091;51.432;6.880;2022-12-18T02:49:31;2.80;;;2.60;;
12059;SDS011;6091;51.432;6.880;2022-12-18T02:52:13;2.70;;;2.50;;
12059;SDS011;6091;51.432;6.880;2022-12-18T02:57:50;2.53;;;2.33;;
12059;SDS011;6091;51.432;6.880;2022-12-18T03:00:28;2.80;;;2.60;;
12059;SDS011;6091;51.432;6.880;2022-12-18T03:03:29;2.67;;;2.47;;
12059;SDS011;6091;51.432;6.880;2022-12-18T03:06:29;2.33;;;2.20;;
12059;SDS011;6091;51.432;6.880;2022-12-18T03:09:15;2.78;;;2.58;;
12059;SDS011;6091;51.432;6.880;2022-12-18T03:15:09;2.88;;;2.67;;
12059;SDS011;6091;51.432;6.880;2022-12-18T03:17:48;2.50;;;2.30;;
12059;SDS011;6091;51.432;6.880;2022-12-18T03:20:22;2.78;;;2.58;;
12059;SDS011;6091;51.432;6.880;2022-12-18T03:22:53;2.70;;;2.50;;
12059;SDS011;6091;51.432;6.880;2022-12-18T03:25:35;2.78;;;2.58;;
12059;SDS011;6091;51.432;6.880;2022-12-18T03:28:14;2.80;;;2.60;;
12059;SDS011;6091;51.432;6.880;2022-12-18T03:30:47;2.58;;;2.38;;
12059;SDS011;6091;51.432;6.880;2022-12-18T03:36:04;2.65;;;2.45;;
12059;SDS011;6091;51.432;6.880;2022-12-18T03:38:31;2.67;;;2.47;;
12059;SDS011;6091;51.432;6.880;2022-12-18T03:41:04;2.20;;;2.05;;
12059;SDS011;6091;51.432;6.880;2022-12-18T03:43:57;2.10;;;2.00;;
12059;SDS011;6091;51.432;6.880;2022-12-18T03:49:47;2.58;;;2.47;;
12059;SDS011;6091;51.432;6.880;2022-12-18T03:52:50;2.42;;;2.22;;
12059;SDS011;6091;51.432;6.880;2022-12-18T03:55:52;2.40;;;2.20;;
12059;SDS011;6091;51.432;6.880;2022-12-18T03:58:22;2.13;;;2.03;;
12059;SDS011;6091;51.432;6.880;2022-12-18T04:00:52;2.28;;;2.08;;
12059;SDS011;6091;51.432;6.880;2022-12-18T04:03:24;2.08;;;1.98;;
12059;SDS011;6091;51.432;6.880;2022-12-18T04:05:56;2.55;;;2.35;;
12059;SDS011;6091;51.432;6.880;2022-12-18T04:08:27;2.40;;;2.20;;
12059;SDS011;6091;51.432;6.880;2022-12-18T04:10:58;1.85;;;1.75;;
12059;SDS011;6091;51.432;6.880;2022-12-18T04:13:29;2.30;;;2.20;;
12059;SDS011;6091;51.432;6.880;2022-12-18T04:16:02;2.00;;;1.90;;
12059;SDS011;6091;51.432;6.880;2022-12-18T04:18:29;2.30;;;2.15;;
12059;SDS011;6091;51.432;6.880;2022-12-18T04:20:57;2.40;;;2.20;;
12059;SDS011;6091;51.432;6.880;2022-12-18T04:23:24;1.83;;;1.73;;
12059;SDS011;6091;51.432;6.880;2022-12-18T04:25:51;2.22;;;2.13;;
12059;SDS011;6091;51.432;6.880;2022-12-18T04:28:17;2.40;;;2.20;;
12059;SDS011;6091;51.432;6.880;2022-12-18T04:30:45;2.22;;;2.03;;
12059;SDS011;6091;51.432;6.880;2022-12-18T04:33:13;2.15;;;1.98;;
12059;SDS011;6091;51.432;6.880;2022-12-18T04:35:41;2.17;;;2.03;;
12059;SDS011;6091;51.432;6.880;2022-12-18T04:38:08;2.40;;;2.20;;
12059;SDS011;6091;51.432;6.880;2022-12-18T04:40:36;2.00;;;1.90;;
12059;SDS011;6091;51.432;6.880;2022-12-18T04:43:06;2.03;;;1.83;;
12059;SDS011;6091;51.432;6.880;2022-12-18T04:45:33;2.20;;;2.00;;
12059;SDS011;6091;51.432;6.880;2022-12-18T04:48:00;2.45;;;2.17;;
12059;SDS011;6091;51.432;6.880;2022-12-18T04:50:29;2.10;;;2.00;;
12059;SDS011;6091;51.432;6.880;2022-12-18T04:52:57;1.98;;;1.88;;
12059;SDS011;6091;51.432;6.880;2022-12-18T04:55:24;2.00;;;1.90;;
12059;SDS011;6091;51.432;6.880;2022-12-18T04:57:51;2.35;;;2.15;;
12059;SDS011;6091;51.432;6.880;2022-12-18T05:00:18;2.00;;;1.90;;
12059;SDS011;6091;51.432;6.880;2022-12-18T05:02:45;2.08;;;1.90;;
12059;SDS011;6091;51.432;6.880;2022-12-18T05:05:13;2.10;;;1.98;;
12059;SDS011;6091;51.432;6.880;2022-12-18T05:07:40;1.90;;;1.80;;
12059;SDS011;6091;51.432;6.880;2022-12-18T05:10:07;2.05;;;1.85;;
12059;SDS011;6091;51.432;6.880;2022-12-18T05:12:35;2.25;;;2.05;;
12059;SDS011;6091;51.432;6.880;2022-12-18T05:15:22;2.15;;;1.95;;
12059;SDS011;6091;51.432;6.880;2022-12-18T05:17:50;2.05;;;1.95;;
12059;SDS011;6091;51.432;6.880;2022-12-18T05:20:17;1.85;;;1.75;;
12059;SDS011;6091;51.432;6.880;2022-12-18T05:22:45;2.03;;;1.88;;
12059;SDS011;6091;51.432;6.880;2022-12-18T05:25:12;1.90;;;1.80;;
12059;SDS011;6091;51.432;6.880;2022-12-18T05:27:39;2.20;;;2.00;;
12059;SDS011;6091;51.432;6.880;2022-12-18T05:30:09;2.00;;;1.80;;
12059;SDS011;6091;51.432;6.880;2022-12-18T05:32:38;2.35;;;2.15;;
12059;SDS011;6091;51.432;6.880;2022-12-18T05:35:06;1.90;;;1.80;;
12059;SDS011;6091;51.432;6.880;2022-12-18T05:37:35;2.20;;;2.00;;
12059;SDS011;6091;51.432;6.880;2022-12-18T05:40:08;1.90;;;1.80;;
12059;SDS011;6091;51.432;6.880;2022-12-18T05:42:36;1.45;;;1.35;;
12059;SDS011;6091;51.432;6.880;2022-12-18T05:45:04;1.80;;;1.70;;
12059;SDS011;6091;51.432;6.880;2022-12-18T05:47:32;1.55;;;1.45;;
12059;SDS011;6091;51.432;6.880;2022-12-18T05:49:59;1.85;;;1.75;;
12059;SDS011;6091;51.432;6.880;2022-12-18T05:52:26;1.90;;;1.80;;
12059;SDS011;6091;51.432;6.880;2022-12-18T05:54:53;1.98;;;1.88;;
12059;SDS011;6091;51.432;6.880;2022-12-18T05:57:20;1.73;;;1.63;;
12059;SDS011;6091;51.432;6.880;2022-12-18T05:59:47;1.85;;;1.75;;
12059;SDS011;6091;51.432;6.880;2022-12-18T06:02:13;2.00;;;1.80;;
12059;SDS011;6091;51.432;6.880;2022-12-18T06:04:40;1.70;;;1.60;;
12059;SDS011;6091;51.432;6.880;2022-12-18T06:07:07;1.60;;;1.50;;
12059;SDS011;6091;51.432;6.880;2022-12-18T06:09:34;1.65;;;1.55;;
12059;SDS011;6091;51.432;6.880;2022-12-18T06:12:01;2.10;;;1.98;;
12059;SDS011;6091;51.432;6.880;2022-12-18T06:14:28;2.10;;;1.90;;
12059;SDS011;6091;51.432;6.880;2022-12-18T06:16:55;1.88;;;1.77;;
12059;SDS011;6091;51.432;6.880;2022-12-18T06:19:22;1.75;;;1.65;;
12059;SDS011;6091;51.432;6.880;2022-12-18T06:21:49;1.85;;;1.75;;
12059;SDS011;6091;51.432;6.880;2022-12-18T06:24:17;1.65;;;1.55;;
12059;SDS011;6091;51.432;6.880;2022-12-18T06:26:44;2.03;;;1.92;;
12059;SDS011;6091;51.432;6.880;2022-12-18T06:29:11;1.88;;;1.77;;
12059;SDS011;6091;51.432;6.880;2022-12-18T06:31:38;1.80;;;1.70;;
12059;SDS011;6091;51.432;6.880;2022-12-18T06:34:05;1.92;;;1.83;;
12059;SDS011;6091;51.432;6.880;2022-12-18T06:36:32;1.90;;;1.80;;
12059;SDS011;6091;51.432;6.880;2022-12-18T06:38:59;1.80;;;1.70;;
12059;SDS011;6091;51.432;6.880;2022-12-18T06:41:26;1.92;;;1.70;;
12059;SDS011;6091;51.432;6.880;2022-12-18T06:43:53;1.90;;;1.73;;
12059;SDS011;6091;51.432;6.880;2022-12-18T06:46:25;1.80;;;1.70;;
12059;SDS011;6091;51.432;6.880;2022-12-18T06:48:52;1.83;;;1.70;;
12059;SDS011;6091;51.432;6.880;2022-12-18T06:51:19;2.33;;;1.90;;
12059;SDS011;6091;51.432;6.880;2022-12-18T06:53:49;1.83;;;1.73;;
12059;SDS011;6091;51.432;6.880;2022-12-18T06:56:16;2.20;;;2.00;;
12059;SDS011;6091;51.432;6.880;2022-12-18T06:58:43;1.92;;;1.83;;
12059;SDS011;6091;51.432;6.880;2022-12-18T07:01:10;2.15;;;1.95;;
12059;SDS011;6091;51.432;6.880;2022-12-18T07:03:39;2.05;;;1.95;;
12059;SDS011;6091;51.432;6.880;2022-12-18T07:06:15;2.10;;;1.90;;
12059;SDS011;6091;51.432;6.880;2022-12-18T07:08:46;2.08;;;1.90;;
12059;SDS011;6091;51.432;6.880;2022-12-18T07:11:15;2.15;;;1.95;;
12059;SDS011;6091;51.432;6.880;2022-12-18T07:13:44;2.08;;;1.88;;
12059;SDS011;6091;51.432;6.880;2022-12-18T07:16:15;2.28;;;2.08;;
12059;SDS011;6091;51.432;6.880;2022-12-18T07:18:51;2.30;;;2.20;;
12059;SDS011;6091;51.432;6.880;2022-12-18T07:21:20;2.10;;;2.00;;
12059;SDS011;6091;51.432;6.880;2022-12-18T07:23:49;2.05;;;1.90;;
12059;SDS011;6091;51.432;6.880;2022-12-18T07:26:17;2.15;;;1.95;;
12059;SDS011;6091;51.432;6.880;2022-12-18T07:28:46;2.42;;;2.22;;
12059;SDS011;6091;51.432;6.880;2022-12-18T07:31:19;1.92;;;1.83;;
12059;SDS011;6091;51.432;6.880;2022-12-18T07:33:51;2.10;;;1.98;;
12059;SDS011;6091;51.432;6.880;2022-12-18T07:36:18;1.95;;;1.75;;
12059;SDS011;6091;51.432;6.880;2022-12-18T07:38:49;2.35;;;2.15;;
12059;SDS011;6091;51.432;6.880;2022-12-18T07:41:16;2.13;;;1.92;;
12059;SDS011;6091;51.432;6.880;2022-12-18T07:43:44;2.10;;;1.90;;
12059;SDS011;6091;51.432;6.880;2022-12-18T07:46:13;2.17;;;2.08;;
12059;SDS011;6091;51.432;6.880;2022-12-18T07:48:43;2.03;;;1.80;;
12059;SDS011;6091;51.432;6.880;2022-12-18T07:51:14;2.33;;;2.13;;
12059;SDS011;6091;51.432;6.880;2022-12-18T07:53:43;2.30;;;2.10;;
12059;SDS011;6091;51.432;6.880;2022-12-18T07:56:11;2.20;;;2.10;;
12059;SDS011;6091;51.432;6.880;2022-12-18T07:58:57;2.10;;;1.90;;
12059;SDS011;6091;51.432;6.880;2022-12-18T08:01:25;2.33;;;2.13;;
12059;SDS011;6091;51.432;6.880;2022-12-18T08:03:53;3.08;;;2.20;;
12059;SDS011;6091;51.432;6.880;2022-12-18T08:06:20;2.88;;;2.13;;
12059;SDS011;6091;51.432;6.880;2022-12-18T08:08:53;2.35;;;2.15;;
12059;SDS011;6091;51.432;6.880;2022-12-18T08:11:22;2.25;;;2.08;;
12059;SDS011;6091;51.432;6.880;2022-12-18T08:13:51;2.40;;;2.20;;
12059;SDS011;6091;51.432;6.880;2022-12-18T08:16:18;2.20;;;2.00;;
12059;SDS011;6091;51.432;6.880;2022-12-18T08:18:47;2.58;;;2.38;;
12059;SDS011;6091;51.432;6.880;2022-12-18T08:21:23;2.78;;;2.58;;
12059;SDS011;6091;51.432;6.880;2022-12-18T08:23:53;2.45;;;2.25;;
12059;SDS011;6091;51.432;6.880;2022-12-18T08:26:22;2.50;;;2.30;;
12059;SDS011;6091;51.432;6.880;2022-12-18T08:28:54;2.17;;;2.00;;
12059;SDS011;6091;51.432;6.880;2022-12-18T08:31:22;2.45;;;2.25;;
12059;SDS011;6091;51.432;6.880;2022-12-18T08:33:52;2.63;;;2.42;;
12059;SDS011;6091;51.432;6.880;2022-12-18T08:36:22;2.38;;;2.17;;
12059;SDS011;6091;51.432;6.880;2022-12-18T08:38:51;3.13;;;2.08;;
12059;SDS011;6091;51.432;6.880;2022-12-18T08:41:19;2.40;;;2.20;;
12059;SDS011;6091;51.432;6.880;2022-12-18T08:43:47;2.65;;;2.45;;
12059;SDS011;6091;51.432;6.880;2022-12-18T08:46:37;2.47;;;2.28;;
12059;SDS011;6091;51.432;6.880;2022-12-18T08:49:07;2.50;;;2.30;;
12059;SDS011;6091;51.432;6.880;2022-12-18T08:51:36;2.80;;;2.60;;
12059;SDS011;6091;51.432;6.880;2022-12-18T08:54:04;2.30;;;2.10;;
12059;SDS011;6091;51.432;6.880;2022-12-18T08:56:32;2.10;;;1.90;;
12059;SDS011;6091;51.432;6.880;2022-12-18T08:59:00;2.25;;;2.10;;
12059;SDS011;6091;51.432;6.880;2022-12-18T09:01:28;2.45;;;2.25;;
12059;SDS011;6091;51.432;6.880;2022-12-18T09:03:56;2.28;;;2.05;;
12059;SDS011;6091;51.432;6.880;2022-12-18T09:06:23;2.30;;;1.98;;
12059;SDS011;6091;51.432;6.880;2022-12-18T09:08:50;2.25;;;2.05;;
12059;SDS011;6091;51.432;6.880;2022-12-18T09:11:22;2.65;;;2.40;;
12059;SDS011;6091;51.432;6.880;2022-12-18T09:13:52;2.47;;;2.05;;
12059;SDS011;6091;51.432;6.880;2022-12-18T09:16:21;2.10;;;2.00;;
12059;SDS011;6091;51.432;6.880;2022-12-18T09:18:57;2.42;;;2.00;;
12059;SDS011;6091;51.432;6.880;2022-12-18T09:21:28;2.30;;;2.10;;
12059;SDS011;6091;51.432;6.880;2022-12-18T09:24:02;1.90;;;1.80;;
12059;SDS011;6091;51.432;6.880;2022-12-18T09:26:34;2.42;;;2.20;;
12059;SDS011;6091;51.432;6.880;2022-12-18T09:29:02;2.33;;;2.10;;
12059;SDS011;6091;51.432;6.880;2022-12-18T09:31:29;1.92;;;1.67;;
12059;SDS011;6091;51.432;6.880;2022-12-18T09:33:56;2.05;;;1.95;;
12059;SDS011;6091;51.432;6.880;2022-12-18T09:36:23;2.35;;;2.08;;
12059;SDS011;6091;51.432;6.880;2022-12-18T09:38:50;2.13;;;1.98;;
12059;SDS011;6091;51.432;6.880;2022-12-18T09:44:03;1.90;;;1.80;;
12059;SDS011;6091;51.432;6.880;2022-12-18T09:49:49;2.20;;;2.00;;
12059;SDS011;6091;51.432;6.880;2022-12-18T09:58:07;1.98;;;1.88;;
12059;SDS011;6091;51.432;6.880;2022-12-18T10:00:53;1.80;;;1.70;;
12059;SDS011;6091;51.432;6.880;2022-12-18T10:03:21;1.95;;;1.70;;
12059;SDS011;6091;51.432;6.880;2022-12-18T10:08:41;1.80;;;1.70;;
12059;SDS011;6091;51.432;6.880;2022-12-18T10:12:04;1.70;;;1.60;;
12059;SDS011;6091;51.432;6.880;2022-12-18T10:15:01;1.60;;;1.50;;
12059;SDS011;6091;51.432;6.880;2022-12-18T10:17:38;1.92;;;1.83;;
12059;SDS011;6091;51.432;6.880;2022-12-18T10:23:04;1.70;;;1.60;;
12059;SDS011;6091;51.432;6.880;2022-12-18T10:26:06;1.73;;;1.50;;
12059;SDS011;6091;51.432;6.880;2022-12-18T10:28:40;1.73;;;1.63;;
12059;SDS011;6091;51.432;6.880;2022-12-18T10:31:16;1.45;;;1.35;;
12059;SDS011;6091;51.432;6.880;2022-12-18T10:33:50;2.15;;;1.90;;
12059;SDS011;6091;51.432;6.880;2022-12-18T10:36:22;1.88;;;1.77;;
12059;SDS011;6091;51.432;6.880;2022-12-18T10:38:55;1.65;;;1.55;;
12059;SDS011;6091;51.432;6.880;2022-12-18T10:41:45;2.50;;;1.75;;
12059;SDS011;6091;51.432;6.880;2022-12-18T10:44:17;1.60;;;1.50;;
12059;SDS011;6091;51.432;6.880;2022-12-18T10:47:04;2.10;;;1.90;;
12059;SDS011;6091;51.432;6.880;2022-12-18T10:49:42;1.98;;;1.60;;
12059;SDS011;6091;51.432;6.880;2022-12-18T10:52:18;1.55;;;1.45;;
12059;SDS011;6091;51.432;6.880;2022-12-18T10:54:49;1.77;;;1.67;;
12059;SDS011;6091;51.432;6.880;2022-12-18T11:00:21;1.85;;;1.58;;
12059;SDS011;6091;51.432;6.880;2022-12-18T11:02:54;1.60;;;1.50;;
12059;SDS011;6091;51.432;6.880;2022-12-18T11:07:58;1.50;;;1.40;;
12059;SDS011;6091;51.432;6.880;2022-12-18T11:10:31;1.48;;;1.38;;
12059;SDS011;6091;51.432;6.880;2022-12-18T11:13:23;1.67;;;1.58;;
12059;SDS011;6091;51.432;6.880;2022-12-18T11:15:54;1.52;;;1.42;;
12059;SDS011;6091;51.432;6.880;2022-12-18T11:18:25;1.92;;;1.70;;
12059;SDS011;6091;51.432;6.880;2022-12-18T11:23:37;2.70;;;1.80;;
12059;SDS011;6091;51.432;6.880;2022-12-18T11:26:15;1.60;;;1.50;;
12059;SDS011;6091;51.432;6.880;2022-12-18T11:31:18;1.63;;;1.50;;
12059;SDS011;6091;51.432;6.880;2022-12-18T11:33:58;2.15;;;1.40;;
12059;SDS011;6091;51.432;6.880;2022-12-18T11:36:56;1.88;;;1.50;;
12059;SDS011;6091;51.432;6.880;2022-12-18T11:39:31;1.63;;;1.52;;
12059;SDS011;6091;51.432;6.880;2022-12-18T11:45:20;1.30;;;1.20;;
12059;SDS011;6091;51.432;6.880;2022-12-18T11:50:54;1.60;;;1.50;;
12059;SDS011;6091;51.432;6.880;2022-12-18T11:53:25;1.50;;;1.40;;
12059;SDS011;6091;51.432;6.880;2022-12-18T12:00:07;1.17;;;1.13;;
12059;SDS011;6091;51.432;6.880;2022-12-18T12:03:06;2.00;;;1.50;;
12059;SDS011;6091;51.432;6.880;2022-12-18T12:08:38;7.00;;;2.05;;
12059;SDS011;6091;51.432;6.880;2022-12-18T12:11:31;1.92;;;1.60;;
12059;SDS011;6091;51.432;6.880;2022-12-18T12:20:22;2.22;;;1.33;;
12059;SDS011;6091;51.432;6.880;2022-12-18T12:23:06;2.90;;;1.60;;
12059;SDS011;6091;51.432;6.880;2022-12-18T12:26:13;2.10;;;1.42;;
12059;SDS011;6091;51.432;6.880;2022-12-18T12:29:05;1.33;;;1.23;;
12059;SDS011;6091;51.432;6.880;2022-12-18T12:41:06;3.50;;;1.60;;
12059;SDS011;6091;51.432;6.880;2022-12-18T12:44:00;2.20;;;1.67;;
12059;SDS011;6091;51.432;6.880;2022-12-18T12:46:35;2.70;;;1.90;;
12059;SDS011;6091;51.432;6.880;2022-12-18T12:49:27;2.40;;;1.50;;
12059;SDS011;6091;51.432;6.880;2022-12-18T12:52:07;3.63;;;1.88;;
12059;SDS011;6091;51.432;6.880;2022-12-18T12:54:43;1.95;;;1.30;;
12059;SDS011;6091;51.432;6.880;2022-12-18T12:57:21;1.50;;;1.40;;
12059;SDS011;6091;51.432;6.880;2022-12-18T13:05:52;2.10;;;1.50;;
12059;SDS011;6091;51.432;6.880;2022-12-18T13:08:28;1.52;;;1.33;;
12059;SDS011;6091;51.432;6.880;2022-12-18T13:11:02;2.75;;;1.50;;
12059;SDS011;6091;51.432;6.880;2022-12-18T13:14:10;2.38;;;1.73;;
12059;SDS011;6091;51.432;6.880;2022-12-18T13:19:40;5.88;;;1.90;;
12059;SDS011;6091;51.432;6.880;2022-12-18T13:22:24;2.42;;;1.75;;
12059;SDS011;6091;51.432;6.880;2022-12-18T13:24:59;1.60;;;1.50;;
12059;SDS011;6091;51.432;6.880;2022-12-18T13:41:01;3.45;;;1.80;;
12059;SDS011;6091;51.432;6.880;2022-12-18T13:43:49;2.15;;;1.95;;
12059;SDS011;6091;51.432;6.880;2022-12-18T13:46:47;2.08;;;1.73;;
12059;SDS011;6091;51.432;6.880;2022-12-18T13:49:24;2.75;;;1.70;;
12059;SDS011;6091;51.432;6.880;2022-12-18T13:52:16;2.97;;;1.75;;
12059;SDS011;6091;51.432;6.880;2022-12-18T13:54:52;1.88;;;1.70;;
12059;SDS011;6091;51.432;6.880;2022-12-18T13:57:29;1.85;;;1.75;;
12059;SDS011;6091;51.432;6.880;2022-12-18T13:59:59;2.40;;;1.80;;
12059;SDS011;6091;51.432;6.880;2022-12-18T14:02:50;3.13;;;1.80;;
12059;SDS011;6091;51.432;6.880;2022-12-18T14:05:25;2.00;;;1.77;;
12059;SDS011;6091;51.432;6.880;2022-12-18T14:08:10;2.42;;;1.88;;
12059;SDS011;6091;51.432;6.880;2022-12-18T14:10:41;2.90;;;1.88;;
12059;SDS011;6091;51.432;6.880;2022-12-18T14:13:26;4.03;;;1.70;;
12059;SDS011;6091;51.432;6.880;2022-12-18T14:15:58;5.45;;;2.13;;
12059;SDS011;6091;51.432;6.880;2022-12-18T14:21:40;2.63;;;1.95;;
12059;SDS011;6091;51.432;6.880;2022-12-18T14:26:45;1.90;;;1.52;;
12059;SDS011;6091;51.432;6.880;2022-12-18T14:29:21;3.08;;;2.30;;
12059;SDS011;6091;51.432;6.880;2022-12-18T14:32:07;1.85;;;1.65;;
12059;SDS011;6091;51.432;6.880;2022-12-18T14:34:45;3.30;;;1.98;;
12059;SDS011;6091;51.432;6.880;2022-12-18T14:37:20;3.03;;;2.10;;
12059;SDS011;6091;51.432;6.880;2022-12-18T14:39:54;2.30;;;1.85;;
12059;SDS011;6091;51.432;6.880;2022-12-18T14:42:35;4.55;;;1.85;;
12059;SDS011;6091;51.432;6.880;2022-12-18T14:50:39;2.05;;;1.85;;
12059;SDS011;6091;51.432;6.880;2022-12-18T14:53:15;3.35;;;2.05;;
12059;SDS011;6091;51.432;6.880;2022-12-18T14:55:50;2.20;;;2.00;;
12059;SDS011;6091;51.432;6.880;2022-12-18T14:58:17;2.45;;;1.92;;
12059;SDS011;6091;51.432;6.880;2022-12-18T15:00:45;2.53;;;1.75;;
12059;SDS011;6091;51.432;6.880;2022-12-18T15:03:14;3.70;;;2.30;;
12059;SDS011;6091;51.432;6.880;2022-12-18T15:05:48;2.60;;;2.00;;
12059;SDS011;6091;51.432;6.880;2022-12-18T15:08:29;3.58;;;1.88;;
12059;SDS011;6091;51.432;6.880;2022-12-18T15:11:22;2.28;;;2.05;;
12059;SDS011;6091;51.432;6.880;2022-12-18T15:14:21;2.00;;;1.90;;
12059;SDS011;6091;51.432;6.880;2022-12-18T15:17:01;2.60;;;1.95;;
12059;SDS011;6091;51.432;6.880;2022-12-18T15:19:43;1.95;;;1.60;;
12059;SDS011;6091;51.432;6.880;2022-12-18T15:22:26;2.00;;;1.90;;
12059;SDS011;6091;51.432;6.880;2022-12-18T15:24:56;2.17;;;1.83;;
12059;SDS011;6091;51.432;6.880;2022-12-18T15:32:34;1.92;;;1.77;;
12059;SDS011;6091;51.432;6.880;2022-12-18T15:37:45;2.00;;;1.90;;
12059;SDS011;6091;51.432;6.880;2022-12-18T15:40:16;2.85;;;1.77;;
12059;SDS011;6091;51.432;6.880;2022-12-18T15:42:51;2.55;;;2.00;;
12059;SDS011;6091;51.432;6.880;2022-12-18T15:45:39;2.30;;;1.92;;
12059;SDS011;6091;51.432;6.880;2022-12-18T15:48:28;2.70;;;2.00;;
12059;SDS011;6091;51.432;6.880;2022-12-18T15:50:55;2.20;;;2.00;;
12059;SDS011;6091;51.432;6.880;2022-12-18T15:53:25;3.13;;;2.20;;
12059;SDS011;6091;51.432;6.880;2022-12-18T15:55:58;1.90;;;1.80;;
12059;SDS011;6091;51.432;6.880;2022-12-18T15:58:44;2.22;;;2.03;;
12059;SDS011;6091;51.432;6.880;2022-12-18T16:01:11;2.28;;;2.08;;
12059;SDS011;6091;51.432;6.880;2022-12-18T16:03:53;1.70;;;1.60;;
12059;SDS011;6091;51.432;6.880;2022-12-18T16:06:22;2.13;;;1.92;;
12059;SDS011;6091;51.432;6.880;2022-12-18T16:08:50;2.58;;;2.15;;
12059;SDS011;6091;51.432;6.880;2022-12-18T16:16:47;2.10;;;1.90;;
12059;SDS011;6091;51.432;6.880;2022-12-18T16:19:17;1.77;;;1.67;;
12059;SDS011;6091;51.432;6.880;2022-12-18T16:21:45;2.22;;;2.10;;
12059;SDS011;6091;51.432;6.880;2022-12-18T16:24:18;2.35;;;2.15;;
12059;SDS011;6091;51.432;6.880;2022-12-18T16:26:48;2.22;;;1.95;;
12059;SDS011;6091;51.432;6.880;2022-12-18T16:29:17;2.00;;;1.90;;
12059;SDS011;6091;51.432;6.880;2022-12-18T16:31:50;2.35;;;1.80;;
12059;SDS011;6091;51.432;6.880;2022-12-18T16:34:28;2.13;;;1.92;;
12059;SDS011;6091;51.432;6.880;2022-12-18T16:37:05;2.38;;;2.20;;
12059;SDS011;6091;51.432;6.880;2022-12-18T16:39:34;2.42;;;2.05;;
12059;SDS011;6091;51.432;6.880;2022-12-18T16:42:04;1.90;;;1.80;;
12059;SDS011;6091;51.432;6.880;2022-12-18T16:44:46;2.03;;;1.92;;
12059;SDS011;6091;51.432;6.880;2022-12-18T16:47:16;2.15;;;1.95;;
12059;SDS011;6091;51.432;6.880;2022-12-18T16:49:44;2.28;;;2.10;;
12059;SDS011;6091;51.432;6.880;2022-12-18T16:52:11;2.33;;;2.13;;
12059;SDS011;6091;51.432;6.880;2022-12-18T16:54:39;2.35;;;1.90;;
12059;SDS011;6091;51.432;6.880;2022-12-18T16:57:08;2.30;;;2.10;;
12059;SDS011;6091;51.432;6.880;2022-12-18T16:59:39;2.22;;;2.10;;
12059;SDS011;6091;51.432;6.880;2022-12-18T17:02:10;1.92;;;1.77;;
12059;SDS011;6091;51.432;6.880;2022-12-18T17:04:51;1.98;;;1.88;;
12059;SDS011;6091;51.432;6.880;2022-12-18T17:07:20;2.40;;;2.20;;
12059;SDS011;6091;51.432;6.880;2022-12-18T17:09:48;2.33;;;2.13;;
12059;SDS011;6091;51.432;6.880;2022-12-18T17:12:16;2.10;;;2.00;;
12059;SDS011;6091;51.432;6.880;2022-12-18T17:14:43;2.00;;;1.90;;
12059;SDS011;6091;51.432;6.880;2022-12-18T17:17:11;2.20;;;2.00;;
12059;SDS011;6091;51.432;6.880;2022-12-18T17:19:48;2.03;;;1.70;;
12059;SDS011;6091;51.432;6.880;2022-12-18T17:22:17;2.50;;;2.30;;
12059;SDS011;6091;51.432;6.880;2022-12-18T17:24:45;2.55;;;2.35;;
12059;SDS011;6091;51.432;6.880;2022-12-18T17:27:13;2.30;;;2.10;;
12059;SDS011;6091;51.432;6.880;2022-12-18T17:29:41;2.03;;;1.92;;
12059;SDS011;6091;51.432;6.880;2022-12-18T17:32:13;2.58;;;2.38;;
12059;SDS011;6091;51.432;6.880;2022-12-18T17:34:41;1.98;;;1.75;;
12059;SDS011;6091;51.432;6.880;2022-12-18T17:37:08;2.70;;;2.40;;
12059;SDS011;6091;51.432;6.880;2022-12-18T17:39:35;2.58;;;2.17;;
12059;SDS011;6091;51.432;6.880;2022-12-18T17:42:02;1.80;;;1.70;;
12059;SDS011;6091;51.432;6.880;2022-12-18T17:44:31;2.13;;;2.03;;
12059;SDS011;6091;51.432;6.880;2022-12-18T17:46:59;2.10;;;1.95;;
12059;SDS011;6091;51.432;6.880;2022-12-18T17:49:26;3.33;;;2.20;;